sensor_id;sensor_type;location;lat;lon;timestamp;temperature;humidity
21255;DHT22;10785;50.674;17.954;2023-06-14T00:00:38;11.10;99.90
21255;DHT22;10785;50.674;17.954;2023-06-14T00:03:08;11.00;99.90
21255;DHT22;10785;50.674;17.954;2023-06-14T00:05:39;10.90;99.90
21255;DHT22;10785;50.674;17.954;2023-06-14T00:08:10;10.90;99.90
21255;DHT22;10785;50.674;17.954;2023-06-14T00:10:39;10.90;99.90
21255;DHT22;10785;50.674;17.954;2023-06-14T00:13:09;10.90;99.90
21255;DHT22;10785;50.674;17.954;2023-06-14T00:15:38;11.00;99.90
21255;DHT22;10785;50.674;17.954;2023-06-14T00:18:07;11.00;99.90
21255;DHT22;10785;50.674;17.954;2023-06-14T00:20:40;11.00;99.90
21255;DHT22;10785;50.674;17.954;2023-06-14T00:23:10;11.10;99.90
21255;DHT22;10785;50.674;17.954;2023-06-14T00:25:38;11.00;99.90
21255;DHT22;10785;50.674;17.954;2023-06-14T00:28:07;11.00;99.90
21255;DHT22;10785;50.674;17.954;2023-06-14T00:30:36;11.00;99.90
21255;DHT22;10785;50.674;17.954;2023-06-14T00:33:04;11.00;99.90
21255;DHT22;10785;50.674;17.954;2023-06-14T00:35:33;11.00;99.90
21255;DHT22;10785;50.674;17.954;2023-06-14T00:38:05;11.00;99.90
21255;DHT22;10785;50.674;17.954;2023-06-14T00:40:34;11.00;99.90
21255;DHT22;10785;50.674;17.954;2023-06-14T00:43:02;11.00;99.90
21255;DHT22;10785;50.674;17.954;2023-06-14T00:45:31;11.00;99.90
21255;DHT22;10785;50.674;17.954;2023-06-14T00:48:03;11.00;99.90
21255;DHT22;10785;50.674;17.954;2023-06-14T00:50:34;11.10;99.90
21255;DHT22;10785;50.674;17.954;2023-06-14T00:53:05;11.10;99.90
21255;DHT22;10785;50.674;17.954;2023-06-14T00:55:34;11.10;99.90
21255;DHT22;10785;50.674;17.954;2023-06-14T00:58:02;11.10;99.90
21255;DHT22;10785;50.674;17.954;2023-06-14T01:00:31;11.10;99.90
21255;DHT22;10785;50.674;17.954;2023-06-14T01:03:00;11.10;99.90
21255;DHT22;10785;50.674;17.954;2023-06-14T01:05:30;11.10;99.90
21255;DHT22;10785;50.674;17.954;2023-06-14T01:08:14;11.20;99.90
21255;DHT22;10785;50.674;17.954;2023-06-14T01:10:53;11.10;99.90
21255;DHT22;10785;50.674;17.954;2023-06-14T01:13:29;11.10;99.90
21255;DHT22;10785;50.674;17.954;2023-06-14T01:16:02;11.10;99.90
21255;DHT22;10785;50.674;17.954;2023-06-14T01:18:31;11.10;99.90
21255;DHT22;10785;50.674;17.954;2023-06-14T01:21:02;11.00;99.90
21255;DHT22;10785;50.674;17.954;2023-06-14T01:23:34;11.00;99.90
21255;DHT22;10785;50.674;17.954;2023-06-14T01:26:03;11.00;99.90
21255;DHT22;10785;50.674;17.954;2023-06-14T01:28:33;11.00;99.90
21255;DHT22;10785;50.674;17.954;2023-06-14T01:31:03;11.00;99.90
21255;DHT22;10785;50.674;17.954;2023-06-14T01:33:34;11.00;99.90
21255;DHT22;10785;50.674;17.954;2023-06-14T01:36:05;10.90;99.90
21255;DHT22;10785;50.674;17.954;2023-06-14T01:38:37;10.80;99.90
21255;DHT22;10785;50.674;17.954;2023-06-14T01:41:06;10.70;99.90
21255;DHT22;10785;50.674;17.954;2023-06-14T01:43:35;10.60;99.90
21255;DHT22;10785;50.674;17.954;2023-06-14T01:46:06;10.40;99.90
21255;DHT22;10785;50.674;17.954;2023-06-14T01:48:35;10.30;99.90
21255;DHT22;10785;50.674;17.954;2023-06-14T01:51:04;10.20;99.90
21255;DHT22;10785;50.674;17.954;2023-06-14T01:53:32;10.20;99.90
21255;DHT22;10785;50.674;17.954;2023-06-14T01:56:03;10.20;99.90
21255;DHT22;10785;50.674;17.954;2023-06-14T01:58:32;10.20;99.90
21255;DHT22;10785;50.674;17.954;2023-06-14T02:01:01;10.10;99.90
21255;DHT22;10785;50.674;17.954;2023-06-14T02:03:29;10.10;99.90
21255;DHT22;10785;50.674;17.954;2023-06-14T02:06:05;10.10;99.90
21255;DHT22;10785;50.674;17.954;2023-06-14T02:08:33;10.00;99.90
21255;DHT22;10785;50.674;17.954;2023-06-14T02:11:03;10.00;99.90
21255;DHT22;10785;50.674;17.954;2023-06-14T02:13:32;10.00;99.90
21255;DHT22;10785;50.674;17.954;2023-06-14T02:16:02;10.00;99.90
21255;DHT22;10785;50.674;17.954;2023-06-14T02:18:31;10.00;99.90
21255;DHT22;10785;50.674;17.954;2023-06-14T02:21:19;10.00;99.90
21255;DHT22;10785;50.674;17.954;2023-06-14T02:23:49;10.00;99.90
21255;DHT22;10785;50.674;17.954;2023-06-14T02:26:19;10.00;99.90
21255;DHT22;10785;50.674;17.954;2023-06-14T02:28:48;10.00;99.90
21255;DHT22;10785;50.674;17.954;2023-06-14T02:31:17;10.00;99.90
21255;DHT22;10785;50.674;17.954;2023-06-14T02:33:48;10.00;99.90
21255;DHT22;10785;50.674;17.954;2023-06-14T02:36:17;10.10;99.90
21255;DHT22;10785;50.674;17.954;2023-06-14T02:38:46;10.10;99.90
21255;DHT22;10785;50.674;17.954;2023-06-14T02:41:15;10.20;99.90
21255;DHT22;10785;50.674;17.954;2023-06-14T02:43:45;10.30;99.90
21255;DHT22;10785;50.674;17.954;2023-06-14T02:46:14;10.40;99.90
21255;DHT22;10785;50.674;17.954;2023-06-14T02:48:43;10.40;99.90
21255;DHT22;10785;50.674;17.954;2023-06-14T02:51:12;10.40;99.90
21255;DHT22;10785;50.674;17.954;2023-06-14T02:53:40;10.50;99.90
21255;DHT22;10785;50.674;17.954;2023-06-14T02:56:10;10.50;99.90
21255;DHT22;10785;50.674;17.954;2023-06-14T02:58:40;10.60;99.90
21255;DHT22;10785;50.674;17.954;2023-06-14T03:01:10;10.70;99.90
21255;DHT22;10785;50.674;17.954;2023-06-14T03:03:41;10.80;99.90
21255;DHT22;10785;50.674;17.954;2023-06-14T03:06:10;10.90;99.90
21255;DHT22;10785;50.674;17.954;2023-06-14T03:08:43;10.90;99.90
21255;DHT22;10785;50.674;17.954;2023-06-14T03:11:15;11.00;99.90
21255;DHT22;10785;50.674;17.954;2023-06-14T03:13:48;11.00;99.90
21255;DHT22;10785;50.674;17.954;2023-06-14T03:16:20;11.10;99.90
21255;DHT22;10785;50.674;17.954;2023-06-14T03:18:52;11.20;99.90
21255;DHT22;10785;50.674;17.954;2023-06-14T03:21:21;11.20;99.90
21255;DHT22;10785;50.674;17.954;2023-06-14T03:23:51;11.30;99.90
21255;DHT22;10785;50.674;17.954;2023-06-14T03:26:20;11.40;99.90
21255;DHT22;10785;50.674;17.954;2023-06-14T03:28:52;11.40;99.90
21255;DHT22;10785;50.674;17.954;2023-06-14T03:31:23;11.40;99.90
21255;DHT22;10785;50.674;17.954;2023-06-14T03:33:53;11.30;99.90
21255;DHT22;10785;50.674;17.954;2023-06-14T03:36:22;11.20;99.90
21255;DHT22;10785;50.674;17.954;2023-06-14T03:38:52;11.20;99.90
21255;DHT22;10785;50.674;17.954;2023-06-14T03:41:21;11.20;99.90
21255;DHT22;10785;50.674;17.954;2023-06-14T03:43:51;11.10;99.90
21255;DHT22;10785;50.674;17.954;2023-06-14T03:46:21;11.20;99.90
21255;DHT22;10785;50.674;17.954;2023-06-14T03:48:51;11.20;99.90
21255;DHT22;10785;50.674;17.954;2023-06-14T03:51:20;11.20;99.90
21255;DHT22;10785;50.674;17.954;2023-06-14T03:53:49;11.20;99.90
21255;DHT22;10785;50.674;17.954;2023-06-14T03:56:38;11.30;99.90
21255;DHT22;10785;50.674;17.954;2023-06-14T03:59:10;11.30;99.90
21255;DHT22;10785;50.674;17.954;2023-06-14T04:01:38;11.30;99.90
21255;DHT22;10785;50.674;17.954;2023-06-14T04:04:17;11.30;99.90
21255;DHT22;10785;50.674;17.954;2023-06-14T04:06:46;11.40;99.90
21255;DHT22;10785;50.674;17.954;2023-06-14T04:09:16;11.40;99.90
21255;DHT22;10785;50.674;17.954;2023-06-14T04:11:46;11.30;99.90
21255;DHT22;10785;50.674;17.954;2023-06-14T04:14:15;11.40;99.90
21255;DHT22;10785;50.674;17.954;2023-06-14T04:16:43;11.40;99.90
21255;DHT22;10785;50.674;17.954;2023-06-14T04:19:13;11.40;99.90
21255;DHT22;10785;50.674;17.954;2023-06-14T04:21:43;11.40;99.90
21255;DHT22;10785;50.674;17.954;2023-06-14T04:24:14;11.50;99.90
21255;DHT22;10785;50.674;17.954;2023-06-14T04:26:46;11.60;99.90
21255;DHT22;10785;50.674;17.954;2023-06-14T04:29:17;11.80;99.90
21255;DHT22;10785;50.674;17.954;2023-06-14T04:31:54;11.90;99.90
21255;DHT22;10785;50.674;17.954;2023-06-14T04:34:27;12.10;99.90
21255;DHT22;10785;50.674;17.954;2023-06-14T04:36:59;12.10;99.90
21255;DHT22;10785;50.674;17.954;2023-06-14T04:39:34;12.10;99.90
21255;DHT22;10785;50.674;17.954;2023-06-14T04:42:04;12.10;99.90
21255;DHT22;10785;50.674;17.954;2023-06-14T04:44:36;12.10;99.90
21255;DHT22;10785;50.674;17.954;2023-06-14T04:47:07;12.00;99.90
21255;DHT22;10785;50.674;17.954;2023-06-14T04:49:36;12.10;99.90
21255;DHT22;10785;50.674;17.954;2023-06-14T04:52:07;12.10;99.90
21255;DHT22;10785;50.674;17.954;2023-06-14T04:54:40;12.10;99.90
21255;DHT22;10785;50.674;17.954;2023-06-14T04:57:12;12.40;99.90
21255;DHT22;10785;50.674;17.954;2023-06-14T04:59:48;12.40;99.90
21255;DHT22;10785;50.674;17.954;2023-06-14T05:02:25;12.50;99.90
21255;DHT22;10785;50.674;17.954;2023-06-14T05:04:54;12.60;99.90
21255;DHT22;10785;50.674;17.954;2023-06-14T05:07:26;12.50;99.90
21255;DHT22;10785;50.674;17.954;2023-06-14T05:09:54;12.40;99.90
21255;DHT22;10785;50.674;17.954;2023-06-14T05:12:23;12.40;99.90
21255;DHT22;10785;50.674;17.954;2023-06-14T05:14:52;12.50;99.90
21255;DHT22;10785;50.674;17.954;2023-06-14T05:17:22;12.50;99.90
21255;DHT22;10785;50.674;17.954;2023-06-14T05:19:51;12.60;99.90
21255;DHT22;10785;50.674;17.954;2023-06-14T05:22:19;12.60;99.90
21255;DHT22;10785;50.674;17.954;2023-06-14T05:24:49;12.60;99.90
21255;DHT22;10785;50.674;17.954;2023-06-14T05:27:18;12.60;99.90
21255;DHT22;10785;50.674;17.954;2023-06-14T05:29:47;12.70;99.90
21255;DHT22;10785;50.674;17.954;2023-06-14T05:32:15;12.60;99.90
21255;DHT22;10785;50.674;17.954;2023-06-14T05:34:44;12.50;99.90
21255;DHT22;10785;50.674;17.954;2023-06-14T05:37:13;12.60;99.90
21255;DHT22;10785;50.674;17.954;2023-06-14T05:39:42;12.60;99.90
21255;DHT22;10785;50.674;17.954;2023-06-14T05:42:12;12.60;99.90
21255;DHT22;10785;50.674;17.954;2023-06-14T05:44:41;12.70;99.90
21255;DHT22;10785;50.674;17.954;2023-06-14T05:47:09;12.70;99.90
21255;DHT22;10785;50.674;17.954;2023-06-14T05:49:38;12.60;99.90
21255;DHT22;10785;50.674;17.954;2023-06-14T05:52:08;12.70;99.90
21255;DHT22;10785;50.674;17.954;2023-06-14T05:54:37;12.70;99.90
21255;DHT22;10785;50.674;17.954;2023-06-14T05:57:06;12.80;99.90
21255;DHT22;10785;50.674;17.954;2023-06-14T05:59:36;12.90;99.90
21255;DHT22;10785;50.674;17.954;2023-06-14T06:02:05;13.10;99.90
21255;DHT22;10785;50.674;17.954;2023-06-14T06:04:34;13.30;99.90
21255;DHT22;10785;50.674;17.954;2023-06-14T06:07:03;13.40;99.90
21255;DHT22;10785;50.674;17.954;2023-06-14T06:12:01;15.90;99.90
21255;DHT22;10785;50.674;17.954;2023-06-14T06:14:30;16.70;99.90
21255;DHT22;10785;50.674;17.954;2023-06-14T06:17:00;17.40;99.90
21255;DHT22;10785;50.674;17.954;2023-06-14T06:19:32;20.60;99.90
21255;DHT22;10785;50.674;17.954;2023-06-14T06:22:00;20.60;99.90
21255;DHT22;10785;50.674;17.954;2023-06-14T06:24:29;20.40;99.70
21255;DHT22;10785;50.674;17.954;2023-06-14T06:26:58;21.20;94.10
21255;DHT22;10785;50.674;17.954;2023-06-14T06:29:27;21.10;94.40
21255;DHT22;10785;50.674;17.954;2023-06-14T06:31:56;21.20;94.70
21255;DHT22;10785;50.674;17.954;2023-06-14T06:34:26;22.00;89.10
21255;DHT22;10785;50.674;17.954;2023-06-14T06:36:55;23.00;56.90
21255;DHT22;10785;50.674;17.954;2023-06-14T06:39:23;22.80;56.50
21255;DHT22;10785;50.674;17.954;2023-06-14T06:41:53;21.20;82.60
21255;DHT22;10785;50.674;17.954;2023-06-14T06:44:31;19.50;99.00
21255;DHT22;10785;50.674;17.954;2023-06-14T06:47:01;18.40;99.90
21255;DHT22;10785;50.674;17.954;2023-06-14T06:49:31;17.60;99.90
21255;DHT22;10785;50.674;17.954;2023-06-14T06:52:00;17.40;99.90
21255;DHT22;10785;50.674;17.954;2023-06-14T06:56:59;16.40;99.90
21255;DHT22;10785;50.674;17.954;2023-06-14T06:59:28;16.00;99.90
21255;DHT22;10785;50.674;17.954;2023-06-14T07:01:57;16.10;99.90
21255;DHT22;10785;50.674;17.954;2023-06-14T07:04:26;16.40;99.90
21255;DHT22;10785;50.674;17.954;2023-06-14T07:06:56;17.70;99.90
21255;DHT22;10785;50.674;17.954;2023-06-14T07:09:25;18.70;99.90
21255;DHT22;10785;50.674;17.954;2023-06-14T07:11:54;19.10;99.90
21255;DHT22;10785;50.674;17.954;2023-06-14T07:14:22;19.50;99.90
21255;DHT22;10785;50.674;17.954;2023-06-14T07:16:51;20.20;98.30
21255;DHT22;10785;50.674;17.954;2023-06-14T07:25:55;21.10;91.30
21255;DHT22;10785;50.674;17.954;2023-06-14T07:28:24;21.40;79.90
21255;DHT22;10785;50.674;17.954;2023-06-14T07:30:53;20.80;87.30
21255;DHT22;10785;50.674;17.954;2023-06-14T07:33:22;20.90;86.10
21255;DHT22;10785;50.674;17.954;2023-06-14T07:35:50;19.60;96.90
21255;DHT22;10785;50.674;17.954;2023-06-14T07:38:20;19.30;97.00
21255;DHT22;10785;50.674;17.954;2023-06-14T07:40:49;18.70;99.90
21255;DHT22;10785;50.674;17.954;2023-06-14T07:43:19;18.90;99.90
21255;DHT22;10785;50.674;17.954;2023-06-14T07:45:49;19.00;99.90
21255;DHT22;10785;50.674;17.954;2023-06-14T07:58:19;18.00;99.90
21255;DHT22;10785;50.674;17.954;2023-06-14T08:00:48;17.60;99.90
21255;DHT22;10785;50.674;17.954;2023-06-14T08:03:17;17.40;99.90
21255;DHT22;10785;50.674;17.954;2023-06-14T08:05:46;17.50;99.90
21255;DHT22;10785;50.674;17.954;2023-06-14T08:08:15;17.30;99.90
21255;DHT22;10785;50.674;17.954;2023-06-14T08:10:44;17.20;99.90
21255;DHT22;10785;50.674;17.954;2023-06-14T08:13:12;17.20;99.90
21255;DHT22;10785;50.674;17.954;2023-06-14T08:15:43;17.30;99.90
21255;DHT22;10785;50.674;17.954;2023-06-14T08:18:12;17.20;99.90
21255;DHT22;10785;50.674;17.954;2023-06-14T08:20:40;17.80;99.90
21255;DHT22;10785;50.674;17.954;2023-06-14T08:23:09;17.40;99.90
21255;DHT22;10785;50.674;17.954;2023-06-14T08:25:38;17.80;99.90
21255;DHT22;10785;50.674;17.954;2023-06-14T08:28:07;17.70;99.90
21255;DHT22;10785;50.674;17.954;2023-06-14T08:30:35;17.60;99.90
21255;DHT22;10785;50.674;17.954;2023-06-14T08:33:06;17.20;99.90
21255;DHT22;10785;50.674;17.954;2023-06-14T08:35:44;16.80;99.90
21255;DHT22;10785;50.674;17.954;2023-06-14T08:38:13;16.60;99.90
21255;DHT22;10785;50.674;17.954;2023-06-14T08:40:42;16.80;99.90
21255;DHT22;10785;50.674;17.954;2023-06-14T08:43:10;16.90;99.90
21255;DHT22;10785;50.674;17.954;2023-06-14T08:45:39;16.90;99.90
21255;DHT22;10785;50.674;17.954;2023-06-14T08:48:09;17.20;99.90
21255;DHT22;10785;50.674;17.954;2023-06-14T08:50:40;17.30;99.90
21255;DHT22;10785;50.674;17.954;2023-06-14T08:53:13;17.30;99.90
21255;DHT22;10785;50.674;17.954;2023-06-14T08:55:47;17.40;99.90
21255;DHT22;10785;50.674;17.954;2023-06-14T08:58:17;17.30;99.90
21255;DHT22;10785;50.674;17.954;2023-06-14T09:00:46;17.30;99.90
21255;DHT22;10785;50.674;17.954;2023-06-14T09:03:18;17.20;99.90
21255;DHT22;10785;50.674;17.954;2023-06-14T09:05:48;17.00;99.90
21255;DHT22;10785;50.674;17.954;2023-06-14T09:08:17;16.80;99.90
21255;DHT22;10785;50.674;17.954;2023-06-14T09:10:50;16.80;99.90
21255;DHT22;10785;50.674;17.954;2023-06-14T09:13:19;16.90;99.90
21255;DHT22;10785;50.674;17.954;2023-06-14T09:44:59;18.00;99.90
21255;DHT22;10785;50.674;17.954;2023-06-14T09:47:29;17.70;99.90
21255;DHT22;10785;50.674;17.954;2023-06-14T09:49:58;18.00;99.90
21255;DHT22;10785;50.674;17.954;2023-06-14T09:52:30;18.30;99.90
21255;DHT22;10785;50.674;17.954;2023-06-14T09:54:59;18.40;99.90
21255;DHT22;10785;50.674;17.954;2023-06-14T09:57:30;18.20;99.90
21255;DHT22;10785;50.674;17.954;2023-06-14T10:00:02;18.20;99.90
21255;DHT22;10785;50.674;17.954;2023-06-14T10:02:40;17.90;99.90
21255;DHT22;10785;50.674;17.954;2023-06-14T10:05:15;17.60;99.90
21255;DHT22;10785;50.674;17.954;2023-06-14T10:07:50;17.40;99.90
21255;DHT22;10785;50.674;17.954;2023-06-14T10:10:20;17.10;99.90
21255;DHT22;10785;50.674;17.954;2023-06-14T10:12:49;16.80;99.90
21255;DHT22;10785;50.674;17.954;2023-06-14T10:15:27;16.60;99.90
21255;DHT22;10785;50.674;17.954;2023-06-14T10:18:02;16.40;99.90
21255;DHT22;10785;50.674;17.954;2023-06-14T10:20:39;16.50;99.90
21255;DHT22;10785;50.674;17.954;2023-06-14T10:23:13;16.70;99.90
21255;DHT22;10785;50.674;17.954;2023-06-14T10:25:44;17.20;99.90
21255;DHT22;10785;50.674;17.954;2023-06-14T10:28:17;17.40;99.90
21255;DHT22;10785;50.674;17.954;2023-06-14T10:31:04;17.50;99.90
21255;DHT22;10785;50.674;17.954;2023-06-14T10:33:34;17.70;99.90
21255;DHT22;10785;50.674;17.954;2023-06-14T10:36:25;18.00;99.90
21255;DHT22;10785;50.674;17.954;2023-06-14T10:39:05;18.10;99.90
21255;DHT22;10785;50.674;17.954;2023-06-14T10:41:36;18.10;99.90
21255;DHT22;10785;50.674;17.954;2023-06-14T10:44:37;18.20;99.90
21255;DHT22;10785;50.674;17.954;2023-06-14T10:47:10;18.20;99.90
21255;DHT22;10785;50.674;17.954;2023-06-14T10:49:42;18.50;99.90
21255;DHT22;10785;50.674;17.954;2023-06-14T10:52:12;18.60;99.90
21255;DHT22;10785;50.674;17.954;2023-06-14T10:55:12;18.40;99.90
21255;DHT22;10785;50.674;17.954;2023-06-14T10:57:44;18.40;99.90
21255;DHT22;10785;50.674;17.954;2023-06-14T11:00:20;18.50;99.90
21255;DHT22;10785;50.674;17.954;2023-06-14T11:06:15;18.00;99.90
21255;DHT22;10785;50.674;17.954;2023-06-14T11:11:57;17.70;99.90
21255;DHT22;10785;50.674;17.954;2023-06-14T11:14:29;17.40;99.90
21255;DHT22;10785;50.674;17.954;2023-06-14T11:16:59;17.10;99.90
21255;DHT22;10785;50.674;17.954;2023-06-14T11:19:28;16.90;99.90
21255;DHT22;10785;50.674;17.954;2023-06-14T11:21:59;17.10;99.90
21255;DHT22;10785;50.674;17.954;2023-06-14T11:24:27;17.30;99.90
21255;DHT22;10785;50.674;17.954;2023-06-14T11:26:56;17.60;99.90
21255;DHT22;10785;50.674;17.954;2023-06-14T11:29:25;17.80;99.90
21255;DHT22;10785;50.674;17.954;2023-06-14T11:31:54;18.10;99.90
21255;DHT22;10785;50.674;17.954;2023-06-14T11:34:24;18.30;99.90
21255;DHT22;10785;50.674;17.954;2023-06-14T12:02:38;19.00;99.90
21255;DHT22;10785;50.674;17.954;2023-06-14T12:21:13;18.50;99.90
21255;DHT22;10785;50.674;17.954;2023-06-14T12:23:43;18.70;99.90
21255;DHT22;10785;50.674;17.954;2023-06-14T12:26:13;19.10;99.90
21255;DHT22;10785;50.674;17.954;2023-06-14T12:28:44;19.50;99.90
21255;DHT22;10785;50.674;17.954;2023-06-14T12:31:14;19.30;99.90
21255;DHT22;10785;50.674;17.954;2023-06-14T12:33:43;19.10;99.90
21255;DHT22;10785;50.674;17.954;2023-06-14T12:36:14;19.20;99.90
21255;DHT22;10785;50.674;17.954;2023-06-14T12:38:44;19.10;99.90
21255;DHT22;10785;50.674;17.954;2023-06-14T12:41:13;19.10;99.90
21255;DHT22;10785;50.674;17.954;2023-06-14T12:43:43;19.20;99.90
21255;DHT22;10785;50.674;17.954;2023-06-14T12:46:11;19.40;99.90
21255;DHT22;10785;50.674;17.954;2023-06-14T12:48:40;19.40;99.90
21255;DHT22;10785;50.674;17.954;2023-06-14T12:51:09;19.20;99.90
21255;DHT22;10785;50.674;17.954;2023-06-14T12:53:39;19.10;99.90
21255;DHT22;10785;50.674;17.954;2023-06-14T12:56:08;18.80;99.90
21255;DHT22;10785;50.674;17.954;2023-06-14T12:58:36;18.80;99.90
21255;DHT22;10785;50.674;17.954;2023-06-14T13:01:05;18.50;99.90
21255;DHT22;10785;50.674;17.954;2023-06-14T13:03:34;18.20;99.90
21255;DHT22;10785;50.674;17.954;2023-06-14T13:06:03;18.10;99.90
21255;DHT22;10785;50.674;17.954;2023-06-14T13:08:31;18.20;99.90
21255;DHT22;10785;50.674;17.954;2023-06-14T13:11:02;18.20;99.90
21255;DHT22;10785;50.674;17.954;2023-06-14T13:13:30;18.40;99.90
21255;DHT22;10785;50.674;17.954;2023-06-14T13:16:02;18.40;99.90
21255;DHT22;10785;50.674;17.954;2023-06-14T13:18:31;18.40;99.90
21255;DHT22;10785;50.674;17.954;2023-06-14T13:21:00;18.70;99.90
21255;DHT22;10785;50.674;17.954;2023-06-14T13:23:29;18.90;99.90
21255;DHT22;10785;50.674;17.954;2023-06-14T13:25:58;18.70;99.90
21255;DHT22;10785;50.674;17.954;2023-06-14T13:28:31;18.30;99.90
21255;DHT22;10785;50.674;17.954;2023-06-14T13:31:02;17.80;99.90
21255;DHT22;10785;50.674;17.954;2023-06-14T13:33:31;17.30;99.90
21255;DHT22;10785;50.674;17.954;2023-06-14T13:36:00;17.00;99.90
21255;DHT22;10785;50.674;17.954;2023-06-14T13:54:36;17.10;99.90
21255;DHT22;10785;50.674;17.954;2023-06-14T13:57:05;17.20;99.90
21255;DHT22;10785;50.674;17.954;2023-06-14T13:59:34;17.40;99.90
21255;DHT22;10785;50.674;17.954;2023-06-14T14:02:03;17.30;99.90
21255;DHT22;10785;50.674;17.954;2023-06-14T14:04:33;17.40;99.90
21255;DHT22;10785;50.674;17.954;2023-06-14T14:07:04;17.40;99.90
21255;DHT22;10785;50.674;17.954;2023-06-14T14:09:33;17.30;99.90
21255;DHT22;10785;50.674;17.954;2023-06-14T14:12:05;17.20;99.90
21255;DHT22;10785;50.674;17.954;2023-06-14T14:14:33;17.00;99.90
21255;DHT22;10785;50.674;17.954;2023-06-14T14:17:03;16.70;99.90
21255;DHT22;10785;50.674;17.954;2023-06-14T14:19:32;16.40;99.90
21255;DHT22;10785;50.674;17.954;2023-06-14T14:22:02;16.30;99.90
21255;DHT22;10785;50.674;17.954;2023-06-14T14:24:30;16.00;99.90
21255;DHT22;10785;50.674;17.954;2023-06-14T14:26:59;15.80;99.90
21255;DHT22;10785;50.674;17.954;2023-06-14T14:29:29;15.50;99.90
21255;DHT22;10785;50.674;17.954;2023-06-14T14:31:58;15.40;99.90
21255;DHT22;10785;50.674;17.954;2023-06-14T14:34:27;15.20;99.90
21255;DHT22;10785;50.674;17.954;2023-06-14T14:36:56;15.10;99.90
21255;DHT22;10785;50.674;17.954;2023-06-14T14:39:25;15.00;99.90
21255;DHT22;10785;50.674;17.954;2023-06-14T14:41:53;15.00;99.90
21255;DHT22;10785;50.674;17.954;2023-06-14T14:44:22;15.00;99.90
21255;DHT22;10785;50.674;17.954;2023-06-14T14:46:52;15.00;99.90
21255;DHT22;10785;50.674;17.954;2023-06-14T14:49:21;15.00;99.90
21255;DHT22;10785;50.674;17.954;2023-06-14T14:51:49;14.90;99.90
21255;DHT22;10785;50.674;17.954;2023-06-14T14:54:18;14.90;99.90
21255;DHT22;10785;50.674;17.954;2023-06-14T14:56:47;14.90;99.90
21255;DHT22;10785;50.674;17.954;2023-06-14T14:59:15;14.80;99.90
21255;DHT22;10785;50.674;17.954;2023-06-14T15:01:44;14.80;99.90
21255;DHT22;10785;50.674;17.954;2023-06-14T15:04:15;14.80;99.90
21255;DHT22;10785;50.674;17.954;2023-06-14T15:06:44;14.70;99.90
21255;DHT22;10785;50.674;17.954;2023-06-14T15:09:13;14.60;99.90
21255;DHT22;10785;50.674;17.954;2023-06-14T15:11:42;14.50;99.90
21255;DHT22;10785;50.674;17.954;2023-06-14T15:14:11;14.40;99.90
21255;DHT22;10785;50.674;17.954;2023-06-14T15:16:42;14.40;99.90
21255;DHT22;10785;50.674;17.954;2023-06-14T15:19:11;14.30;99.90
21255;DHT22;10785;50.674;17.954;2023-06-14T15:21:41;14.30;99.90
21255;DHT22;10785;50.674;17.954;2023-06-14T15:24:09;14.30;99.90
21255;DHT22;10785;50.674;17.954;2023-06-14T15:26:38;14.40;99.90
21255;DHT22;10785;50.674;17.954;2023-06-14T15:29:07;14.40;99.90
21255;DHT22;10785;50.674;17.954;2023-06-14T15:31:36;14.40;99.90
21255;DHT22;10785;50.674;17.954;2023-06-14T15:34:04;14.50;99.90
21255;DHT22;10785;50.674;17.954;2023-06-14T15:36:33;14.50;99.90
21255;DHT22;10785;50.674;17.954;2023-06-14T15:39:03;14.50;99.90
21255;DHT22;10785;50.674;17.954;2023-06-14T15:41:32;14.50;99.90
21255;DHT22;10785;50.674;17.954;2023-06-14T15:44:04;14.40;99.90
21255;DHT22;10785;50.674;17.954;2023-06-14T15:46:32;14.50;99.90
21255;DHT22;10785;50.674;17.954;2023-06-14T15:49:01;14.50;99.90
21255;DHT22;10785;50.674;17.954;2023-06-14T15:51:36;14.50;99.90
21255;DHT22;10785;50.674;17.954;2023-06-14T15:54:07;14.60;99.90
21255;DHT22;10785;50.674;17.954;2023-06-14T15:56:35;14.60;99.90
21255;DHT22;10785;50.674;17.954;2023-06-14T15:59:04;14.50;99.90
21255;DHT22;10785;50.674;17.954;2023-06-14T16:01:34;14.50;99.90
21255;DHT22;10785;50.674;17.954;2023-06-14T16:04:04;14.50;99.90
21255;DHT22;10785;50.674;17.954;2023-06-14T16:06:32;14.50;99.90
21255;DHT22;10785;50.674;17.954;2023-06-14T16:09:03;14.40;99.90
21255;DHT22;10785;50.674;17.954;2023-06-14T16:11:34;14.50;99.90
21255;DHT22;10785;50.674;17.954;2023-06-14T16:14:03;14.60;99.90
21255;DHT22;10785;50.674;17.954;2023-06-14T16:16:32;14.60;99.90
21255;DHT22;10785;50.674;17.954;2023-06-14T16:19:01;14.50;99.90
21255;DHT22;10785;50.674;17.954;2023-06-14T16:21:29;14.70;99.90
21255;DHT22;10785;50.674;17.954;2023-06-14T16:24:01;14.80;99.90
21255;DHT22;10785;50.674;17.954;2023-06-14T16:26:30;15.00;99.90
21255;DHT22;10785;50.674;17.954;2023-06-14T16:29:00;15.20;99.90
21255;DHT22;10785;50.674;17.954;2023-06-14T16:31:31;15.30;99.90
21255;DHT22;10785;50.674;17.954;2023-06-14T16:33:59;15.40;99.90
21255;DHT22;10785;50.674;17.954;2023-06-14T16:36:28;15.40;99.90
21255;DHT22;10785;50.674;17.954;2023-06-14T16:38:57;15.50;99.90
21255;DHT22;10785;50.674;17.954;2023-06-14T16:41:26;15.50;99.90
21255;DHT22;10785;50.674;17.954;2023-06-14T16:43:55;15.50;99.90
21255;DHT22;10785;50.674;17.954;2023-06-14T16:46:34;15.60;99.90
21255;DHT22;10785;50.674;17.954;2023-06-14T16:49:03;15.70;99.90
21255;DHT22;10785;50.674;17.954;2023-06-14T16:51:32;15.70;99.90
21255;DHT22;10785;50.674;17.954;2023-06-14T16:54:01;15.80;99.90
21255;DHT22;10785;50.674;17.954;2023-06-14T16:56:30;15.70;99.90
21255;DHT22;10785;50.674;17.954;2023-06-14T16:58:59;15.70;99.90
21255;DHT22;10785;50.674;17.954;2023-06-14T17:01:28;15.50;99.90
21255;DHT22;10785;50.674;17.954;2023-06-14T17:03:58;15.40;99.90
21255;DHT22;10785;50.674;17.954;2023-06-14T17:06:27;15.40;99.90
21255;DHT22;10785;50.674;17.954;2023-06-14T17:08:56;15.30;99.90
21255;DHT22;10785;50.674;17.954;2023-06-14T17:11:25;15.30;99.90
21255;DHT22;10785;50.674;17.954;2023-06-14T17:13:55;15.30;99.90
21255;DHT22;10785;50.674;17.954;2023-06-14T17:16:23;15.30;99.90
21255;DHT22;10785;50.674;17.954;2023-06-14T17:18:52;15.30;99.90
21255;DHT22;10785;50.674;17.954;2023-06-14T17:21:22;15.40;99.90
21255;DHT22;10785;50.674;17.954;2023-06-14T17:23:51;15.40;99.90
21255;DHT22;10785;50.674;17.954;2023-06-14T17:26:19;15.50;99.90
21255;DHT22;10785;50.674;17.954;2023-06-14T17:28:48;15.40;99.90